4TX2 weather

Public forecast

Using degrees Fahrenheit for public forecast. Weather courtesy of forecast.io.

Closest aviation weather report (METAR) to Stage Coach Hills Airport

Closest report is Fort Worth Alliance Airport, 4.5 nm (8.4 km) WNW. Retrieved 2020/08/15 12:53 UTC (51 minutes ago):

KAFW 151253Z 14006KT 10SM FEW250 SCT300 28/22 A2990 RMK AO2 SLP105 T02830217

Closest aviation forecast (TAF) to Stage Coach Hills Airport

Closest forecast is Fort Worth Alliance Airport, 4.5 nm (8.4 km) WNW. Retrieved 2020/08/15 12:22 UTC (1 hour ago):

TAF KAFW 151120Z 1512/1612 15009KT P6SM SCT300 FM151800 10009KT P6SM FEW300